Time;durP1;ratioP1;P1;durP2;ratioP2;P2;SDS_P1;SDS_P2;PMS_P1;PMS_P2;Temp;Humidity;BMP_temperature;BMP_pressure;BME280_temperature;BME280_humidity;BME280_pressure;Samples;Min_cycle;Max_cycle;Signal;HPM_P1;HPM_P2
2023/05/15 00:00:00;;;;;;;6.80;6.20;;;;;;;;;;5050286;28;20202;-79
2023/05/15 00:02:27;;;;;;;7.13;6.30;;;;;;;;;;5023067;28;20262;-79
2023/05/15 00:04:54;;;;;;;6.17;5.67;;;;;;;;;;5049504;28;20636;-80
2023/05/15 00:07:21;;;;;;;6.63;6.00;;;;;;;;;;5023659;28;20206;-79
2023/05/15 00:09:49;;;;;;;6.87;6.30;;;;;;;;;;5049405;28;20210;-80
2023/05/15 00:12:16;;;;;;;6.30;5.80;;;;;;;;;;5049552;28;20198;-80
2023/05/15 00:14:42;;;;;;;6.97;6.00;;;;;;;;;;5049580;28;20206;-79
2023/05/15 00:17:09;;;;;;;6.40;5.90;;;;;;;;;;5049108;28;20715;-79
2023/05/15 00:19:36;;;;;;;7.17;6.30;;;;;;;;;;5048642;28;20213;-79
2023/05/15 00:22:02;;;;;;;6.63;6.10;;;;;;;;;;5036669;28;20202;-79
2023/05/15 00:24:29;;;;;;;7.30;6.60;;;;;;;;;;5049675;28;20225;-79
2023/05/15 00:26:57;;;;;;;7.60;7.00;;;;;;;;;;5049316;28;20209;-79
2023/05/15 00:29:24;;;;;;;9.00;6.27;;;;;;;;;;5049288;28;20684;-79
2023/05/15 00:31:50;;;;;;;6.77;6.17;;;;;;;;;;5049548;28;20266;-79
2023/05/15 00:34:17;;;;;;;6.27;5.77;;;;;;;;;;5049823;28;20210;-80
2023/05/15 00:36:44;;;;;;;7.40;6.70;;;;;;;;;;5049718;28;20643;-79
2023/05/15 00:39:11;;;;;;;9.27;7.20;;;;;;;;;;5049650;28;20286;-79
2023/05/15 00:41:38;;;;;;;8.23;7.53;;;;;;;;;;5049172;28;20210;-80
2023/05/15 00:44:07;;;;;;;6.87;6.27;;;;;;;;;;5048647;28;20700;-79
2023/05/15 00:46:34;;;;;;;8.47;7.10;;;;;;;;;;5049444;28;20229;-79
2023/05/15 00:49:03;;;;;;;7.47;6.63;;;;;;;;;;5047919;28;20633;-79
2023/05/15 00:51:30;;;;;;;5.93;5.43;;;;;;;;;;5048759;28;20202;-79
2023/05/15 00:53:58;;;;;;;7.50;6.90;;;;;;;;;;5048778;28;20206;-79
2023/05/15 00:56:25;;;;;;;7.50;5.93;;;;;;;;;;5049017;28;20234;-79
2023/05/15 00:58:52;;;;;;;8.30;6.53;;;;;;;;;;5049012;28;20206;-79
2023/05/15 01:01:20;;;;;;;6.80;6.23;;;;;;;;;;5048981;28;20202;-80
2023/05/15 01:03:47;;;;;;;7.47;5.97;;;;;;;;;;5049400;28;20258;-80
2023/05/15 01:06:14;;;;;;;6.03;5.57;;;;;;;;;;5049036;28;20206;-79
2023/05/15 01:08:43;;;;;;;7.43;6.73;;;;;;;;;;5049042;28;20629;-79
2023/05/15 01:11:12;;;;;;;6.80;6.27;;;;;;;;;;5049205;28;20233;-79
2023/05/15 01:13:39;;;;;;;6.83;6.07;;;;;;;;;;5048520;28;20199;-79
2023/05/15 01:16:06;;;;;;;6.40;5.90;;;;;;;;;;5048713;28;20226;-79
2023/05/15 01:18:35;;;;;;;8.73;5.93;;;;;;;;;;5049146;28;20197;-79
2023/05/15 01:21:27;;;;;;;9.03;5.90;;;;;;;;;;5035236;28;20210;-79
2023/05/15 01:24:08;;;;;;;5.37;4.87;;;;;;;;;;5048795;28;20212;-79
2023/05/15 01:27:16;;;;;;;5.23;4.80;;;;;;;;;;5048359;28;20216;-79
2023/05/15 01:29:47;;;;;;;6.53;5.57;;;;;;;;;;4967099;28;20259;-79
2023/05/15 01:32:17;;;;;;;6.10;5.50;;;;;;;;;;5037275;27;20210;-79
2023/05/15 01:34:45;;;;;;;7.83;5.83;;;;;;;;;;5023246;28;20206;-79
2023/05/15 01:37:14;;;;;;;6.43;5.83;;;;;;;;;;5048245;28;20285;-80
2023/05/15 01:39:42;;;;;;;6.33;5.83;;;;;;;;;;5048239;28;20206;-79
2023/05/15 01:42:10;;;;;;;6.10;5.50;;;;;;;;;;5047718;28;20676;-80
2023/05/15 01:44:41;;;;;;;6.20;5.60;;;;;;;;;;5048228;28;20213;-80
2023/05/15 01:47:11;;;;;;;6.63;5.87;;;;;;;;;;5048145;28;20237;-80
2023/05/15 01:49:38;;;;;;;5.97;5.47;;;;;;;;;;5048197;28;20202;-79
2023/05/15 01:52:08;;;;;;;7.10;6.23;;;;;;;;;;5047426;28;20679;-79
2023/05/15 01:54:36;;;;;;;6.50;5.77;;;;;;;;;;5048347;28;20210;-79
2023/05/15 01:57:03;;;;;;;6.43;5.87;;;;;;;;;;5045560;28;20232;-79
2023/05/15 01:59:30;;;;;;;6.50;5.90;;;;;;;;;;5037359;28;20258;-80
2023/05/15 02:01:58;;;;;;;6.43;5.87;;;;;;;;;;5047567;28;20637;-79
2023/05/15 02:04:25;;;;;;;7.43;6.63;;;;;;;;;;5047954;28;20720;-79
2023/05/15 02:06:53;;;;;;;9.67;6.63;;;;;;;;;;5047813;28;20206;-79
2023/05/15 02:09:20;;;;;;;7.70;6.93;;;;;;;;;;5047871;28;20202;-79
2023/05/15 02:11:47;;;;;;;7.40;6.70;;;;;;;;;;5034594;28;20324;-79
2023/05/15 02:14:15;;;;;;;7.10;6.53;;;;;;;;;;5047962;28;20284;-79
2023/05/15 02:16:41;;;;;;;7.37;6.67;;;;;;;;;;5046952;28;20221;-79
2023/05/15 02:19:10;;;;;;;7.67;6.87;;;;;;;;;;5047813;28;20711;-79
2023/05/15 02:21:36;;;;;;;8.70;7.80;;;;;;;;;;5041561;28;20578;-79
2023/05/15 02:24:04;;;;;;;8.53;7.00;;;;;;;;;;5028843;28;20202;-79
2023/05/15 02:26:36;;;;;;;7.43;6.73;;;;;;;;;;5047574;28;20270;-79
2023/05/15 02:29:13;;;;;;;7.73;7.03;;;;;;;;;;5046752;27;20209;-79
2023/05/15 02:31:48;;;;;;;8.30;7.50;;;;;;;;;;5030087;28;20208;-79
2023/05/15 02:34:18;;;;;;;7.33;6.63;;;;;;;;;;5045499;27;20211;-80
2023/05/15 02:36:49;;;;;;;7.80;6.53;;;;;;;;;;5047490;28;20232;-79
2023/05/15 02:39:16;;;;;;;7.70;7.00;;;;;;;;;;5025827;28;20211;-79
2023/05/15 02:41:44;;;;;;;7.07;6.37;;;;;;;;;;5020565;28;20230;-79
2023/05/15 02:44:11;;;;;;;7.50;6.43;;;;;;;;;;5044611;28;20198;-79
2023/05/15 02:46:39;;;;;;;6.53;5.93;;;;;;;;;;5036798;28;20237;-80
2023/05/15 02:49:06;;;;;;;7.87;7.07;;;;;;;;;;5034969;28;20213;-79
2023/05/15 02:51:34;;;;;;;8.73;7.93;;;;;;;;;;5047226;28;20212;-79
2023/05/15 02:54:01;;;;;;;9.07;6.70;;;;;;;;;;5046987;28;20202;-79
2023/05/15 02:56:28;;;;;;;8.40;7.00;;;;;;;;;;5047031;28;20584;-78
2023/05/15 02:58:54;;;;;;;8.40;7.60;;;;;;;;;;5029956;28;20210;-78
2023/05/15 03:01:21;;;;;;;7.60;6.90;;;;;;;;;;5046362;28;20198;-78
2023/05/15 03:03:48;;;;;;;11.67;7.33;;;;;;;;;;5047044;28;20202;-78
2023/05/15 03:06:15;;;;;;;7.60;6.90;;;;;;;;;;5046712;28;20263;-78
2023/05/15 03:08:43;;;;;;;6.97;6.27;;;;;;;;;;5047185;28;20266;-78
2023/05/15 03:11:10;;;;;;;6.70;6.10;;;;;;;;;;5046664;28;20209;-78
2023/05/15 03:13:36;;;;;;;7.07;6.47;;;;;;;;;;5048844;28;20202;-78
2023/05/15 03:16:03;;;;;;;6.90;6.03;;;;;;;;;;5050029;28;20227;-78
2023/05/15 03:18:30;;;;;;;6.90;6.30;;;;;;;;;;5033924;28;20223;-77
2023/05/15 03:20:57;;;;;;;7.67;6.10;;;;;;;;;;5040186;28;20210;-79
2023/05/15 03:23:24;;;;;;;7.57;6.87;;;;;;;;;;5046277;28;20611;-78
2023/05/15 03:25:52;;;;;;;8.47;7.67;;;;;;;;;;5040957;28;20212;-78
2023/05/15 03:28:18;;;;;;;9.83;6.53;;;;;;;;;;5049511;28;20202;-79
2023/05/15 03:30:45;;;;;;;9.97;7.50;;;;;;;;;;5050192;28;20684;-78
2023/05/15 03:33:12;;;;;;;7.43;6.83;;;;;;;;;;5049579;28;20194;-79
2023/05/15 03:35:39;;;;;;;8.20;6.90;;;;;;;;;;5050337;28;20213;-78
2023/05/15 03:38:05;;;;;;;8.57;7.87;;;;;;;;;;5050424;28;20214;-79
2023/05/15 03:40:32;;;;;;;7.97;7.27;;;;;;;;;;5050033;28;20258;-79
2023/05/15 03:43:02;;;;;;;8.63;7.87;;;;;;;;;;5045194;28;20236;-79
2023/05/15 03:45:28;;;;;;;9.70;8.73;;;;;;;;;;5043397;28;20206;-80
2023/05/15 03:47:55;;;;;;;9.47;8.53;;;;;;;;;;5037719;28;20573;-80
2023/05/15 03:50:22;;;;;;;9.50;8.60;;;;;;;;;;5050575;28;20206;-79
2023/05/15 03:52:48;;;;;;;10.10;8.43;;;;;;;;;;5049849;28;20194;-79
2023/05/15 03:55:15;;;;;;;8.60;7.80;;;;;;;;;;5050065;28;20237;-80
2023/05/15 03:57:42;;;;;;;10.50;8.67;;;;;;;;;;5049748;28;20226;-80
2023/05/15 04:00:11;;;;;;;9.73;8.93;;;;;;;;;;5048665;28;20206;-80
2023/05/15 04:02:39;;;;;;;13.47;9.53;;;;;;;;;;5038323;28;20251;-79
2023/05/15 04:05:06;;;;;;;15.07;11.10;;;;;;;;;;5049670;28;20202;-79
2023/05/15 04:07:34;;;;;;;10.27;9.17;;;;;;;;;;5049919;28;20202;-79
2023/05/15 04:10:01;;;;;;;13.20;11.07;;;;;;;;;;5049933;28;20206;-80
2023/05/15 04:12:28;;;;;;;12.60;10.27;;;;;;;;;;5033390;28;20202;-80
2023/05/15 04:14:55;;;;;;;12.23;11.03;;;;;;;;;;5049665;28;20210;-79
2023/05/15 04:17:23;;;;;;;15.33;13.73;;;;;;;;;;5049327;28;20229;-79
2023/05/15 04:19:50;;;;;;;14.93;13.33;;;;;;;;;;5049236;28;20206;-80
2023/05/15 04:22:17;;;;;;;10.83;8.90;;;;;;;;;;5023492;28;20201;-78
2023/05/15 04:24:44;;;;;;;10.10;9.10;;;;;;;;;;5049152;28;20202;-79
2023/05/15 04:27:11;;;;;;;10.60;8.63;;;;;;;;;;5049560;28;20267;-79
2023/05/15 04:29:37;;;;;;;10.20;9.20;;;;;;;;;;5049297;28;20676;-79
2023/05/15 04:32:04;;;;;;;10.67;9.57;;;;;;;;;;5048090;28;20202;-80
2023/05/15 04:34:33;;;;;;;11.20;10.10;;;;;;;;;;5036417;28;20208;-79
2023/05/15 04:37:00;;;;;;;13.30;11.90;;;;;;;;;;5048656;28;20202;-80
2023/05/15 04:39:26;;;;;;;10.77;9.83;;;;;;;;;;5036435;28;20210;-79
2023/05/15 04:41:53;;;;;;;10.17;9.23;;;;;;;;;;5047088;28;20199;-81
2023/05/15 04:44:20;;;;;;;12.00;8.83;;;;;;;;;;5048899;28;20217;-79
2023/05/15 04:46:47;;;;;;;11.07;9.97;;;;;;;;;;5047510;28;20230;-80
2023/05/15 04:49:13;;;;;;;11.20;10.10;;;;;;;;;;5047816;28;20623;-80
2023/05/15 04:51:42;;;;;;;11.27;10.07;;;;;;;;;;5048279;28;20204;-80
2023/05/15 04:54:08;;;;;;;10.10;9.23;;;;;;;;;;5048287;28;20285;-80
2023/05/15 04:56:35;;;;;;;12.00;9.03;;;;;;;;;;5048076;28;20209;-80
2023/05/15 04:59:02;;;;;;;10.37;9.47;;;;;;;;;;5048178;28;20588;-79
2023/05/15 05:01:29;;;;;;;10.47;9.00;;;;;;;;;;5048838;28;20209;-79
2023/05/15 05:03:56;;;;;;;9.30;8.40;;;;;;;;;;5049073;28;20678;-79
2023/05/15 05:06:23;;;;;;;9.17;8.37;;;;;;;;;;5048918;28;20594;-79
2023/05/15 05:08:51;;;;;;;10.70;9.60;;;;;;;;;;5048914;28;20209;-80
2023/05/15 05:11:18;;;;;;;8.90;7.93;;;;;;;;;;5048674;28;20719;-80
2023/05/15 05:13:45;;;;;;;10.33;9.33;;;;;;;;;;5048544;28;20258;-80
2023/05/15 05:16:11;;;;;;;12.20;8.67;;;;;;;;;;5048363;28;20709;-80
2023/05/15 05:18:38;;;;;;;9.67;8.87;;;;;;;;;;5048830;28;20235;-80
2023/05/15 05:21:05;;;;;;;11.37;9.80;;;;;;;;;;5048472;28;20208;-80
2023/05/15 05:23:31;;;;;;;10.20;9.30;;;;;;;;;;5049018;28;20200;-80
2023/05/15 05:26:00;;;;;;;11.03;9.90;;;;;;;;;;5048469;28;20571;-80
2023/05/15 05:28:27;;;;;;;10.20;9.13;;;;;;;;;;5048681;28;20748;-79
2023/05/15 05:30:53;;;;;;;11.87;10.50;;;;;;;;;;5047949;28;20209;-80
2023/05/15 05:33:20;;;;;;;11.50;10.40;;;;;;;;;;5048347;28;20657;-80
2023/05/15 05:35:47;;;;;;;10.13;9.23;;;;;;;;;;5046550;28;20209;-79
2023/05/15 05:38:14;;;;;;;10.17;9.17;;;;;;;;;;5048727;28;20645;-80
2023/05/15 05:40:41;;;;;;;12.17;11.07;;;;;;;;;;5048197;28;20596;-80
2023/05/15 05:43:09;;;;;;;9.47;8.57;;;;;;;;;;5048675;28;20214;-80
2023/05/15 05:45:35;;;;;;;10.80;9.33;;;;;;;;;;5048156;28;20233;-80
2023/05/15 05:48:02;;;;;;;10.23;8.70;;;;;;;;;;5048231;28;20740;-80
2023/05/15 05:50:29;;;;;;;9.87;8.97;;;;;;;;;;5048080;28;20216;-80
2023/05/15 05:52:56;;;;;;;9.80;8.93;;;;;;;;;;5048110;28;20212;-80
2023/05/15 05:55:23;;;;;;;10.33;9.43;;;;;;;;;;5048245;28;20202;-79
2023/05/15 05:57:49;;;;;;;10.07;9.07;;;;;;;;;;5048146;28;20316;-79
2023/05/15 06:00:19;;;;;;;8.93;8.13;;;;;;;;;;5047564;28;20202;-80
2023/05/15 06:02:48;;;;;;;10.73;8.53;;;;;;;;;;5047791;28;20262;-80
2023/05/15 06:05:15;;;;;;;9.97;9.07;;;;;;;;;;5048268;28;20630;-80
2023/05/15 06:07:43;;;;;;;8.23;7.43;;;;;;;;;;5048355;28;20220;-80
2023/05/15 06:10:11;;;;;;;9.17;7.93;;;;;;;;;;5047497;28;20698;-80
2023/05/15 06:12:38;;;;;;;9.00;8.20;;;;;;;;;;5047677;28;20206;-80
2023/05/15 06:15:06;;;;;;;10.07;8.60;;;;;;;;;;5046749;28;20263;-80
2023/05/15 06:17:34;;;;;;;9.57;8.57;;;;;;;;;;5047999;28;20626;-81
2023/05/15 06:20:01;;;;;;;11.33;8.30;;;;;;;;;;5034647;28;20209;-80
2023/05/15 06:22:28;;;;;;;10.47;9.40;;;;;;;;;;5047918;28;20297;-80
2023/05/15 06:24:54;;;;;;;8.80;8.00;;;;;;;;;;5048032;28;20656;-80
2023/05/15 06:27:21;;;;;;;8.53;7.73;;;;;;;;;;5047950;28;20206;-79
2023/05/15 06:29:48;;;;;;;8.43;7.67;;;;;;;;;;5047339;28;20625;-80
2023/05/15 06:32:15;;;;;;;8.77;8.07;;;;;;;;;;5047088;28;20192;-80
2023/05/15 06:34:43;;;;;;;8.80;8.10;;;;;;;;;;5034247;28;20604;-80
2023/05/15 06:37:09;;;;;;;9.60;8.37;;;;;;;;;;5047547;28;20209;-80
2023/05/15 06:39:36;;;;;;;8.80;8.00;;;;;;;;;;5047560;28;20649;-80
2023/05/15 06:42:03;;;;;;;8.67;7.67;;;;;;;;;;5047605;28;20249;-80
2023/05/15 06:44:30;;;;;;;7.87;7.17;;;;;;;;;;5047881;28;20216;-80
2023/05/15 06:46:57;;;;;;;9.57;7.27;;;;;;;;;;5047264;28;20263;-80
2023/05/15 06:49:24;;;;;;;8.73;7.60;;;;;;;;;;5050771;28;20577;-80
2023/05/15 06:51:55;;;;;;;7.13;6.37;;;;;;;;;;5051051;28;20678;-80
2023/05/15 06:54:22;;;;;;;8.70;7.77;;;;;;;;;;5025672;28;20649;-80
2023/05/15 06:56:48;;;;;;;7.97;7.30;;;;;;;;;;5050730;28;20262;-80
2023/05/15 06:59:15;;;;;;;7.77;7.07;;;;;;;;;;5051139;28;20294;-80
2023/05/15 07:01:42;;;;;;;7.47;6.87;;;;;;;;;;5049492;28;20208;-80
2023/05/15 07:04:08;;;;;;;8.30;7.50;;;;;;;;;;5038402;28;20206;-80
2023/05/15 07:06:36;;;;;;;8.17;6.87;;;;;;;;;;5050497;28;20201;-81
2023/05/15 07:09:05;;;;;;;6.77;6.13;;;;;;;;;;5051156;28;20206;-80
2023/05/15 07:11:36;;;;;;;7.23;6.53;;;;;;;;;;5050505;28;20743;-80
2023/05/15 07:14:02;;;;;;;9.23;7.90;;;;;;;;;;5042104;28;20219;-80
2023/05/15 07:16:29;;;;;;;6.80;6.20;;;;;;;;;;5045676;28;20216;-80
2023/05/15 07:18:56;;;;;;;9.53;6.20;;;;;;;;;;5050778;28;20234;-80
2023/05/15 07:21:22;;;;;;;5.40;4.90;;;;;;;;;;5049717;28;20752;-80
2023/05/15 07:23:50;;;;;;;7.70;5.90;;;;;;;;;;5050350;28;20206;-80
2023/05/15 07:26:19;;;;;;;6.60;6.00;;;;;;;;;;5049848;28;20224;-80
2023/05/15 07:28:46;;;;;;;5.83;5.33;;;;;;;;;;5050844;28;20218;-80
2023/05/15 07:31:13;;;;;;;5.47;5.07;;;;;;;;;;5049709;28;20205;-80
2023/05/15 07:33:40;;;;;;;5.97;5.47;;;;;;;;;;5050376;28;20205;-80
2023/05/15 07:36:10;;;;;;;15.00;12.10;;;;;;;;;;5050428;28;20288;-80
2023/05/15 07:38:36;;;;;;;6.37;5.47;;;;;;;;;;5050483;28;20725;-80
2023/05/15 07:41:04;;;;;;;7.60;6.80;;;;;;;;;;5049901;28;20194;-80
2023/05/15 07:43:32;;;;;;;5.27;4.77;;;;;;;;;;5049873;28;20198;-80
2023/05/15 07:45:58;;;;;;;5.83;5.33;;;;;;;;;;5049437;28;20256;-80
2023/05/15 07:48:25;;;;;;;7.60;4.97;;;;;;;;;;5050510;28;20197;-80
2023/05/15 07:50:52;;;;;;;5.63;5.13;;;;;;;;;;5049916;28;20744;-80
2023/05/15 07:53:19;;;;;;;13.07;7.67;;;;;;;;;;5049596;28;20251;-80
2023/05/15 07:55:46;;;;;;;7.47;5.63;;;;;;;;;;5049530;28;20205;-80
2023/05/15 07:58:13;;;;;;;5.87;5.03;;;;;;;;;;5049271;28;20222;-80
2023/05/15 08:00:41;;;;;;;5.83;5.33;;;;;;;;;;5049841;28;20210;-81
2023/05/15 08:03:08;;;;;;;5.77;4.90;;;;;;;;;;5049894;28;20690;-80
2023/05/15 08:05:35;;;;;;;5.70;5.10;;;;;;;;;;5043833;28;20211;-80
2023/05/15 08:08:02;;;;;;;5.73;4.97;;;;;;;;;;5042953;28;20209;-80
2023/05/15 08:10:28;;;;;;;6.20;5.70;;;;;;;;;;5049427;28;21209;-80
2023/05/15 08:12:55;;;;;;;6.40;4.60;;;;;;;;;;5049764;28;20270;-80
2023/05/15 08:15:22;;;;;;;9.17;5.60;;;;;;;;;;5049229;28;20258;-80
2023/05/15 08:17:51;;;;;;;5.47;4.93;;;;;;;;;;5049205;28;20221;-80
2023/05/15 08:20:18;;;;;;;9.90;5.33;;;;;;;;;;5023663;28;20704;-80
2023/05/15 08:22:44;;;;;;;7.60;5.60;;;;;;;;;;5049722;28;20202;-80
2023/05/15 08:25:11;;;;;;;15.03;9.50;;;;;;;;;;5042557;28;20665;-81
2023/05/15 08:27:38;;;;;;;9.57;7.10;;;;;;;;;;5043862;28;20205;-80
2023/05/15 08:30:05;;;;;;;5.40;4.93;;;;;;;;;;5049702;28;20201;-80
2023/05/15 08:32:32;;;;;;;7.67;5.00;;;;;;;;;;5048523;28;20262;-80
2023/05/15 08:35:00;;;;;;;6.67;5.20;;;;;;;;;;5049376;28;20623;-80
2023/05/15 08:37:27;;;;;;;5.53;4.60;;;;;;;;;;5049008;28;20602;-80
2023/05/15 08:39:54;;;;;;;7.40;5.30;;;;;;;;;;5049177;28;20279;-80
2023/05/15 08:42:22;;;;;;;19.80;13.70;;;;;;;;;;5049008;28;20202;-80
2023/05/15 08:44:50;;;;;;;6.80;6.10;;;;;;;;;;5049613;28;20203;-80
2023/05/15 08:47:19;;;;;;;6.07;5.43;;;;;;;;;;5048871;28;20237;-80
2023/05/15 08:49:52;;;;;;;5.67;5.07;;;;;;;;;;5049193;28;20202;-80
2023/05/15 08:52:20;;;;;;;5.30;4.80;;;;;;;;;;5049054;28;20203;-80
2023/05/15 08:54:49;;;;;;;13.93;9.70;;;;;;;;;;5048863;28;20681;-80
2023/05/15 08:57:17;;;;;;;6.43;5.63;;;;;;;;;;5049185;28;20199;-80
2023/05/15 08:59:44;;;;;;;5.73;5.13;;;;;;;;;;5048972;28;20728;-80
2023/05/15 09:02:13;;;;;;;5.27;3.90;;;;;;;;;;5048540;28;20677;-80
2023/05/15 09:04:40;;;;;;;5.40;5.00;;;;;;;;;;5049088;28;20231;-80
2023/05/15 09:07:07;;;;;;;4.27;3.87;;;;;;;;;;5044260;28;20264;-80
2023/05/15 09:09:36;;;;;;;7.00;5.30;;;;;;;;;;5040606;28;20687;-80
2023/05/15 09:12:04;;;;;;;5.90;4.63;;;;;;;;;;5047798;28;20204;-80
2023/05/15 09:14:30;;;;;;;5.63;4.77;;;;;;;;;;5048483;28;20563;-80
2023/05/15 09:16:58;;;;;;;4.83;4.10;;;;;;;;;;5048321;28;20253;-80
2023/05/15 09:19:24;;;;;;;6.77;5.10;;;;;;;;;;5048577;28;20705;-80
2023/05/15 09:21:51;;;;;;;5.40;4.90;;;;;;;;;;5048174;28;20679;-80
2023/05/15 09:24:23;;;;;;;5.90;5.30;;;;;;;;;;5048003;28;20207;-80
2023/05/15 09:27:02;;;;;;;5.93;5.27;;;;;;;;;;5048562;28;20209;-80
2023/05/15 09:29:30;;;;;;;6.33;5.00;;;;;;;;;;5048278;28;20209;-80
2023/05/15 09:31:57;;;;;;;9.73;7.30;;;;;;;;;;5048146;28;20209;-80
2023/05/15 09:34:30;;;;;;;6.83;4.13;;;;;;;;;;5048139;28;20210;-80
2023/05/15 09:36:57;;;;;;;5.37;4.40;;;;;;;;;;5048383;28;20689;-81
2023/05/15 09:39:24;;;;;;;6.27;4.90;;;;;;;;;;5048131;28;20225;-80
2023/05/15 09:41:52;;;;;;;5.57;4.40;;;;;;;;;;5048180;28;20209;-80
2023/05/15 09:44:24;;;;;;;10.00;6.07;;;;;;;;;;5047878;28;20202;-80
2023/05/15 09:46:55;;;;;;;8.13;4.50;;;;;;;;;;5048167;28;20232;-81
2023/05/15 09:49:22;;;;;;;4.87;4.40;;;;;;;;;;5048729;28;20205;-81
2023/05/15 09:51:49;;;;;;;5.83;5.30;;;;;;;;;;5048038;28;20718;-80
2023/05/15 09:54:17;;;;;;;5.33;4.83;;;;;;;;;;5047534;28;20205;-81
2023/05/15 09:56:44;;;;;;;4.23;3.93;;;;;;;;;;5048114;28;20679;-81
2023/05/15 09:59:13;;;;;;;4.93;4.43;;;;;;;;;;5041583;28;20237;-81
2023/05/15 10:01:42;;;;;;;8.30;4.37;;;;;;;;;;5041478;28;20233;-81
2023/05/15 10:04:10;;;;;;;4.63;4.23;;;;;;;;;;5048177;28;20209;-81
2023/05/15 10:06:37;;;;;;;5.27;4.20;;;;;;;;;;5046904;28;20229;-81
2023/05/15 10:09:05;;;;;;;4.50;4.10;;;;;;;;;;5036383;28;20225;-80
2023/05/15 10:11:34;;;;;;;4.90;4.40;;;;;;;;;;5034519;28;20207;-81
2023/05/15 10:14:02;;;;;;;4.73;4.33;;;;;;;;;;5047192;28;20209;-81
2023/05/15 10:16:29;;;;;;;4.73;4.33;;;;;;;;;;5047028;28;20206;-81
2023/05/15 10:18:57;;;;;;;5.17;4.57;;;;;;;;;;5047879;28;20235;-81
2023/05/15 10:21:25;;;;;;;6.73;3.57;;;;;;;;;;5047556;28;20202;-81
2023/05/15 10:23:54;;;;;;;4.20;3.90;;;;;;;;;;5047742;28;20202;-81
2023/05/15 10:26:24;;;;;;;5.93;4.27;;;;;;;;;;5047786;28;20201;-81
2023/05/15 10:28:51;;;;;;;4.50;4.10;;;;;;;;;;5047738;28;20210;-81
2023/05/15 10:31:18;;;;;;;7.57;4.03;;;;;;;;;;5047392;28;20282;-81
2023/05/15 10:33:46;;;;;;;4.30;3.90;;;;;;;;;;5047462;28;20204;-81
2023/05/15 10:36:15;;;;;;;5.13;4.53;;;;;;;;;;5047219;28;20285;-81
2023/05/15 10:38:42;;;;;;;6.10;5.50;;;;;;;;;;5048191;28;20266;-81
2023/05/15 10:41:09;;;;;;;5.80;4.20;;;;;;;;;;5046679;28;20201;-81
2023/05/15 10:43:36;;;;;;;5.73;5.17;;;;;;;;;;5047629;28;20206;-81
2023/05/15 10:46:04;;;;;;;5.23;4.77;;;;;;;;;;5033919;28;20226;-81
2023/05/15 10:48:31;;;;;;;5.87;4.93;;;;;;;;;;5047756;28;20227;-80
2023/05/15 10:51:00;;;;;;;5.77;4.60;;;;;;;;;;5046642;28;20990;-81
2023/05/15 10:53:28;;;;;;;6.93;4.67;;;;;;;;;;5047132;28;20229;-81
2023/05/15 10:55:55;;;;;;;7.00;5.27;;;;;;;;;;5047041;28;20690;-81
2023/05/15 10:58:23;;;;;;;4.30;3.90;;;;;;;;;;5047385;28;20206;-82
2023/05/15 11:00:50;;;;;;;4.03;3.73;;;;;;;;;;5047238;28;20233;-81
2023/05/15 11:03:18;;;;;;;5.30;4.80;;;;;;;;;;5046932;28;20689;-81
2023/05/15 11:06:07;;;;;;;7.27;4.70;;;;;;;;;;5047150;28;20202;-81
2023/05/15 11:08:35;;;;;;;4.50;4.10;;;;;;;;;;5046915;28;20634;-81
2023/05/15 11:11:02;;;;;;;4.10;3.70;;;;;;;;;;5046733;28;20202;-81
2023/05/15 11:14:08;;;;;;;4.53;3.83;;;;;;;;;;5046731;28;20198;-81
2023/05/15 11:16:57;;;;;;;5.07;4.47;;;;;;;;;;5046621;28;20209;-81
2023/05/15 11:19:24;;;;;;;5.97;5.37;;;;;;;;;;5046902;28;20268;-81
2023/05/15 11:21:56;;;;;;;4.77;4.37;;;;;;;;;;5046701;28;20359;-81
2023/05/15 11:24:28;;;;;;;6.87;4.10;;;;;;;;;;5046393;28;20246;-82
2023/05/15 11:27:00;;;;;;;4.57;4.17;;;;;;;;;;5046798;28;20646;-81
2023/05/15 11:29:27;;;;;;;6.70;4.40;;;;;;;;;;5047045;28;20206;-81
2023/05/15 11:31:53;;;;;;;5.47;4.60;;;;;;;;;;5046653;28;20202;-81
2023/05/15 11:34:30;;;;;;;5.37;4.87;;;;;;;;;;5047937;28;20569;-82
2023/05/15 11:36:58;;;;;;;11.80;5.50;;;;;;;;;;5050535;28;20348;-81
2023/05/15 11:39:26;;;;;;;6.23;4.87;;;;;;;;;;5049986;28;20253;-81
2023/05/15 11:41:54;;;;;;;11.13;4.77;;;;;;;;;;5050044;28;20213;-81
2023/05/15 11:44:22;;;;;;;9.67;6.73;;;;;;;;;;5050058;28;20201;-83
2023/05/15 11:46:50;;;;;;;5.43;4.20;;;;;;;;;;5050461;28;20225;-81
2023/05/15 11:49:18;;;;;;;5.00;4.50;;;;;;;;;;5049901;28;20262;-81
2023/05/15 11:51:48;;;;;;;5.03;4.00;;;;;;;;;;5049823;28;20206;-81
2023/05/15 11:54:15;;;;;;;6.00;4.13;;;;;;;;;;5050042;28;20211;-81
2023/05/15 11:56:43;;;;;;;8.93;4.40;;;;;;;;;;5050084;28;20213;-81
2023/05/15 11:59:13;;;;;;;5.90;5.40;;;;;;;;;;5049111;28;20206;-81
2023/05/15 12:01:41;;;;;;;4.40;4.00;;;;;;;;;;5049603;28;20743;-81
2023/05/15 12:04:18;;;;;;;7.40;5.10;;;;;;;;;;5024049;28;20198;-82
2023/05/15 12:06:46;;;;;;;57.60;39.53;;;;;;;;;;5035976;28;20206;-81
2023/05/15 12:09:16;;;;;;;58.77;42.77;;;;;;;;;;5049478;28;20216;-82
2023/05/15 12:11:49;;;;;;;9.37;8.47;;;;;;;;;;5049774;28;20206;-81
2023/05/15 12:14:17;;;;;;;4.87;4.47;;;;;;;;;;5049840;28;20215;-81
2023/05/15 12:16:44;;;;;;;4.93;4.50;;;;;;;;;;5048646;28;20198;-81
2023/05/15 12:19:10;;;;;;;4.87;4.47;;;;;;;;;;5049938;28;20241;-81
2023/05/15 12:21:42;;;;;;;5.50;4.53;;;;;;;;;;5049383;28;20601;-82
2023/05/15 12:24:11;;;;;;;4.60;4.17;;;;;;;;;;5049418;28;20209;-82
2023/05/15 12:26:38;;;;;;;5.47;4.13;;;;;;;;;;5048819;28;20198;-81
2023/05/15 12:29:05;;;;;;;4.23;3.83;;;;;;;;;;5049831;28;20284;-81
2023/05/15 12:31:34;;;;;;;5.07;4.57;;;;;;;;;;5049065;28;20202;-82
2023/05/15 12:34:01;;;;;;;5.17;4.47;;;;;;;;;;5036737;28;20207;-81
2023/05/15 12:36:29;;;;;;;5.03;4.53;;;;;;;;;;5036343;28;20608;-82
2023/05/15 12:38:56;;;;;;;4.67;4.27;;;;;;;;;;5049519;28;20206;-81
2023/05/15 12:41:26;;;;;;;5.37;4.23;;;;;;;;;;5049317;28;20795;-82
2023/05/15 12:43:53;;;;;;;4.60;4.20;;;;;;;;;;5048697;28;20680;-81
2023/05/15 12:46:22;;;;;;;7.23;3.97;;;;;;;;;;5048990;28;20575;-82
2023/05/15 12:48:51;;;;;;;6.97;4.23;;;;;;;;;;5049598;28;20205;-82
2023/05/15 12:51:18;;;;;;;5.33;4.53;;;;;;;;;;5049070;28;20197;-82
2023/05/15 12:53:46;;;;;;;4.90;4.50;;;;;;;;;;5048418;28;20213;-81
2023/05/15 12:56:16;;;;;;;6.13;4.60;;;;;;;;;;5048644;28;20296;-82
2023/05/15 12:58:42;;;;;;;6.67;4.33;;;;;;;;;;5048463;28;20202;-82
2023/05/15 13:01:09;;;;;;;5.00;4.40;;;;;;;;;;5048921;28;20301;-81
2023/05/15 13:03:36;;;;;;;5.03;4.07;;;;;;;;;;5048663;28;20625;-82
2023/05/15 13:06:07;;;;;;;11.20;6.83;;;;;;;;;;5048993;28;20206;-81
2023/05/15 13:08:41;;;;;;;6.03;4.17;;;;;;;;;;5035305;28;20205;-82
2023/05/15 13:11:12;;;;;;;4.37;3.50;;;;;;;;;;5048945;28;20617;-82
2023/05/15 13:13:43;;;;;;;6.70;3.60;;;;;;;;;;5035690;28;20683;-82
2023/05/15 13:16:18;;;;;;;3.53;3.23;;;;;;;;;;5036095;28;20234;-82
2023/05/15 13:18:45;;;;;;;6.03;3.30;;;;;;;;;;5024016;28;20198;-82
2023/05/15 13:21:13;;;;;;;5.17;3.50;;;;;;;;;;5047480;28;20719;-82
2023/05/15 13:23:40;;;;;;;3.60;3.30;;;;;;;;;;5036570;28;20728;-81
2023/05/15 13:26:07;;;;;;;5.80;3.50;;;;;;;;;;5048903;28;20206;-82
2023/05/15 13:28:34;;;;;;;3.43;3.13;;;;;;;;;;5049040;28;20206;-82
2023/05/15 13:31:00;;;;;;;4.30;3.20;;;;;;;;;;5048514;27;20233;-83
2023/05/15 13:33:27;;;;;;;3.77;3.50;;;;;;;;;;5048738;28;20202;-85
2023/05/15 13:35:56;;;;;;;4.20;3.00;;;;;;;;;;5048605;28;20255;-82
2023/05/15 13:38:24;;;;;;;3.87;3.40;;;;;;;;;;5039480;28;20273;-82
2023/05/15 13:40:51;;;;;;;4.23;3.40;;;;;;;;;;5041927;28;20223;-81
2023/05/15 13:43:18;;;;;;;4.10;3.80;;;;;;;;;;5038467;28;20209;-82
2023/05/15 13:45:44;;;;;;;6.17;4.13;;;;;;;;;;5047373;28;20237;-81
2023/05/15 13:48:11;;;;;;;4.90;4.43;;;;;;;;;;5048815;28;20198;-82
2023/05/15 13:50:38;;;;;;;4.30;3.90;;;;;;;;;;5047577;28;20773;-82
2023/05/15 13:53:05;;;;;;;18.37;12.43;;;;;;;;;;5048751;28;20236;-82
2023/05/15 13:55:34;;;;;;;13.10;9.40;;;;;;;;;;5048003;28;20593;-82
2023/05/15 13:58:01;;;;;;;23.00;13.70;;;;;;;;;;5047385;28;20662;-82
2023/05/15 14:00:28;;;;;;;27.57;17.90;;;;;;;;;;5047894;28;20250;-82
2023/05/15 14:02:54;;;;;;;50.57;26.50;;;;;;;;;;5048322;28;20209;-82
2023/05/15 14:05:21;;;;;;;48.73;31.93;;;;;;;;;;5043218;28;20745;-82
2023/05/15 14:07:48;;;;;;;49.17;27.30;;;;;;;;;;5038979;28;20210;-83
2023/05/15 14:10:14;;;;;;;65.47;34.83;;;;;;;;;;5042953;28;20206;-82
2023/05/15 14:12:43;;;;;;;36.67;22.33;;;;;;;;;;5027948;28;20210;-82
2023/05/15 14:15:11;;;;;;;15.40;13.77;;;;;;;;;;5046170;28;20198;-82
2023/05/15 14:17:38;;;;;;;11.10;10.00;;;;;;;;;;5036125;28;20230;-82
2023/05/15 14:20:06;;;;;;;12.27;9.50;;;;;;;;;;5033458;28;20328;-82
2023/05/15 14:22:32;;;;;;;12.50;10.20;;;;;;;;;;5035366;28;20202;-82
2023/05/15 14:24:59;;;;;;;5.67;5.13;;;;;;;;;;5047091;28;20259;-82
2023/05/15 14:27:26;;;;;;;5.10;4.70;;;;;;;;;;5024776;28;20261;-80
2023/05/15 14:29:55;;;;;;;13.33;11.30;;;;;;;;;;5021274;28;20210;-79
2023/05/15 14:32:22;;;;;;;13.17;10.13;;;;;;;;;;5045081;28;20201;-82
2023/05/15 14:34:49;;;;;;;21.80;16.33;;;;;;;;;;5047578;28;20213;-82
2023/05/15 14:37:15;;;;;;;14.70;13.13;;;;;;;;;;5042193;28;20206;-83
2023/05/15 14:39:42;;;;;;;20.53;16.37;;;;;;;;;;5028161;28;20634;-82
2023/05/15 14:42:09;;;;;;;16.47;13.37;;;;;;;;;;5040745;28;20275;-82